Time;durP1;ratioP1;P1;durP2;ratioP2;P2;SDS_P1;SDS_P2;PMS_P1;PMS_P2;Temp;Humidity;BMP_temperature;BMP_pressure;BME280_temperature;BME280_humidity;BME280_pressure;Samples;Min_cycle;Max_cycle;Signal;HPM_P1;HPM_P2
2020/12/01 00:02:23;;;;;;;45.95;34.40;;;;;;;4.42;84.89;101124.16;3542753;40;20652;-80
2020/12/01 00:05:29;;;;;;;44.75;33.88;;;;;;;4.43;84.61;101127.69;3548832;40;20637;-83
2020/12/01 00:08:36;;;;;;;42.28;33.00;;;;;;;4.52;84.17;101113.91;3587968;32;20169;-85
2020/12/01 00:11:40;;;;;;;44.60;33.47;;;;;;;4.56;84.67;101127.00;3604106;32;20153;-84
2020/12/01 00:14:44;;;;;;;50.10;35.70;;;;;;;4.56;84.12;101123.47;3585443;32;20156;-84
2020/12/01 00:17:49;;;;;;;46.00;34.28;;;;;;;4.56;84.34;101127.00;3644320;32;20157;-85
2020/12/01 00:20:53;;;;;;;46.47;35.38;;;;;;;4.59;84.54;101121.50;3590029;33;20127;-80
2020/12/01 00:23:58;;;;;;;44.00;34.00;;;;;;;4.62;84.62;101112.50;3630282;32;20127;-83
2020/12/01 00:27:02;;;;;;;48.10;34.10;;;;;;;4.66;84.61;101106.13;3601871;32;20131;-86
2020/12/01 00:30:16;;;;;;;51.80;34.90;;;;;;;4.59;84.46;101096.75;3629072;32;20135;-81
2020/12/01 00:33:20;;;;;;;47.08;35.03;;;;;;;4.62;84.28;101088.59;3607370;32;20135;-81
2020/12/01 00:36:26;;;;;;;42.22;32.83;;;;;;;4.62;83.88;101090.41;3593246;32;20147;-81
2020/12/01 00:39:31;;;;;;;47.35;33.70;;;;;;;4.64;83.86;101085.88;3604242;32;20156;-84
2020/12/01 00:42:35;;;;;;;46.88;34.15;;;;;;;4.68;83.87;101092.72;3578653;32;20160;-85
2020/12/01 00:45:39;;;;;;;45.88;33.58;;;;;;;4.68;83.87;101092.72;3613820;32;20156;-84
2020/12/01 00:48:44;;;;;;;43.88;33.70;;;;;;;4.70;84.12;101101.47;3594448;32;20151;-85
2020/12/01 00:51:49;;;;;;;44.75;33.08;;;;;;;4.74;83.89;101089.78;3614814;32;20144;-85
2020/12/01 00:54:54;;;;;;;41.67;32.55;;;;;;;4.67;84.37;101081.22;3585773;32;20234;-81
2020/12/01 00:57:58;;;;;;;49.50;35.08;;;;;;;4.66;85.13;101079.53;3604426;32;20515;-85
2020/12/01 01:01:04;;;;;;;43.40;33.03;;;;;;;4.70;85.17;101077.56;3598555;32;20187;-83
2020/12/01 01:04:08;;;;;;;40.05;31.95;;;;;;;4.74;85.26;101079.97;3547830;40;20211;-84
2020/12/01 01:07:12;;;;;;;42.97;33.22;;;;;;;4.76;84.99;101071.94;3536563;40;20148;-84
2020/12/01 01:10:23;;;;;;;49.38;32.13;;;;;;;4.74;85.10;101069.31;3536555;40;20665;-84
2020/12/01 01:13:28;;;;;;;47.33;33.17;;;;;;;4.71;84.98;101060.66;3543114;40;20708;-84
2020/12/01 01:16:33;;;;;;;48.10;33.20;;;;;;;4.72;85.35;101067.69;3542186;40;20128;-85
2020/12/01 01:19:37;;;;;;;42.58;32.60;;;;;;;4.72;85.13;101060.56;3536250;40;20653;-83
2020/12/01 01:22:41;;;;;;;42.72;32.97;;;;;;;4.72;85.00;101052.59;3536244;40;20308;-85
2020/12/01 01:25:46;;;;;;;52.45;33.92;;;;;;;4.73;85.15;101042.81;3536070;40;20167;-81
2020/12/01 01:28:50;;;;;;;41.28;31.35;;;;;;;4.75;84.96;101047.13;3535929;40;20172;-85
2020/12/01 01:31:55;;;;;;;44.30;34.35;;;;;;;4.71;85.11;101048.25;3537085;32;20238;-82
2020/12/01 01:35:00;;;;;;;50.55;34.15;;;;;;;4.69;85.49;101049.25;3604399;32;20632;-86
2020/12/01 01:38:06;;;;;;;45.83;33.08;;;;;;;4.70;85.37;101050.97;3585553;32;20204;-86
2020/12/01 01:41:10;;;;;;;45.47;34.33;;;;;;;4.74;85.55;101044.56;3608877;32;20148;-84
2020/12/01 01:44:20;;;;;;;43.47;32.40;;;;;;;4.76;85.35;101032.91;3585104;32;20141;-85
2020/12/01 01:47:30;;;;;;;48.40;33.30;;;;;;;4.78;85.23;101038.13;3572861;33;20152;-85
2020/12/01 01:50:34;;;;;;;46.20;33.88;;;;;;;4.81;85.27;101033.53;3587341;32;20641;-85
2020/12/01 01:53:45;;;;;;;45.22;33.15;;;;;;;4.83;85.31;101038.75;3616964;32;20148;-85
2020/12/01 01:56:53;;;;;;;49.13;34.33;;;;;;;4.82;85.41;101045.00;3602350;32;20144;-85
2020/12/01 01:59:59;;;;;;;46.70;32.28;;;;;;;4.85;85.47;101036.84;3621123;32;20136;-84
2020/12/01 02:03:03;;;;;;;40.85;31.55;;;;;;;4.85;85.58;101036.84;3536006;40;20160;-81
2020/12/01 02:06:27;;;;;;;42.13;32.13;;;;;;;4.85;85.47;101037.72;3541154;40;20211;-86
2020/12/01 02:09:47;;;;;;;45.95;33.00;;;;;;;4.74;85.63;101040.06;3531028;40;20157;-83
2020/12/01 02:12:56;;;;;;;44.70;33.38;;;;;;;4.71;85.96;101028.75;3579204;33;20144;-85
2020/12/01 02:16:00;;;;;;;39.50;31.23;;;;;;;4.70;86.11;101027.91;3591168;33;20178;-84
2020/12/01 02:19:12;;;;;;;43.45;31.73;;;;;;;4.71;86.38;101026.09;3578090;32;20132;-84
2020/12/01 02:22:19;;;;;;;42.83;33.28;;;;;;;4.72;86.46;101025.16;3579860;32;20148;-82
2020/12/01 02:25:24;;;;;;;46.40;31.70;;;;;;;4.72;86.47;101026.00;3595257;32;20144;-84
2020/12/01 02:28:28;;;;;;;44.85;32.67;;;;;;;4.73;86.49;101022.41;3617781;32;20144;-85
2020/12/01 02:31:32;;;;;;;41.25;32.72;;;;;;;4.74;86.66;101012.66;3541557;40;20163;-78
2020/12/01 02:34:41;;;;;;;41.92;31.73;;;;;;;4.72;86.77;101011.84;3547119;40;20144;-86
2020/12/01 02:37:47;;;;;;;42.10;32.33;;;;;;;4.72;86.90;101003.88;3590235;32;20171;-83
2020/12/01 02:40:51;;;;;;;45.75;33.22;;;;;;;4.72;86.91;100999.41;3543983;40;20661;-85
2020/12/01 02:43:55;;;;;;;46.60;33.45;;;;;;;4.74;86.96;100994.03;3537458;40;20177;-85
2020/12/01 02:47:02;;;;;;;43.95;32.25;;;;;;;4.78;86.76;100982.28;3526448;40;20165;-84
2020/12/01 02:50:06;;;;;;;39.42;31.90;;;;;;;4.76;86.81;100976.19;3531664;40;20140;-85
2020/12/01 02:53:11;;;;;;;39.92;32.80;;;;;;;4.76;86.56;100968.22;3537507;40;20562;-82
2020/12/01 02:56:15;;;;;;;42.65;33.85;;;;;;;4.71;86.67;100970.25;3537526;40;20144;-83
2020/12/01 02:59:20;;;;;;;41.47;33.70;;;;;;;4.68;86.86;100971.28;3543728;40;20159;-85
2020/12/01 03:02:24;;;;;;;40.80;31.90;;;;;;;4.69;86.87;100964.19;3543830;40;20140;-81
2020/12/01 03:05:28;;;;;;;44.67;33.95;;;;;;;4.65;86.89;100967.91;3613071;32;20324;-85
2020/12/01 03:08:33;;;;;;;41.95;32.72;;;;;;;4.58;87.26;100954.97;3594473;32;20148;-85
2020/12/01 03:11:37;;;;;;;45.92;32.97;;;;;;;4.52;87.20;100957.94;3623875;32;20645;-86
2020/12/01 03:14:41;;;;;;;43.97;33.80;;;;;;;4.41;87.51;100952.34;3594160;32;20152;-85
2020/12/01 03:17:46;;;;;;;45.92;35.33;;;;;;;4.41;87.78;100947.03;3578947;32;20132;-85
2020/12/01 03:20:50;;;;;;;42.63;32.60;;;;;;;4.45;87.45;100947.72;3607434;32;20199;-86
2020/12/01 03:23:55;;;;;;;42.15;32.97;;;;;;;4.42;87.67;100948.75;3594918;32;20153;-80
2020/12/01 03:26:59;;;;;;;43.47;33.78;;;;;;;4.38;87.67;100936.56;3605160;32;20203;-84
2020/12/01 03:30:06;;;;;;;47.22;33.85;;;;;;;4.35;87.62;100931.41;3599645;32;20140;-83
2020/12/01 03:33:10;;;;;;;44.35;33.28;;;;;;;4.34;87.89;100926.19;3606137;32;20230;-83
2020/12/01 03:36:16;;;;;;;45.60;34.33;;;;;;;4.31;87.69;100916.56;3543124;40;20542;-83
2020/12/01 03:39:20;;;;;;;45.67;34.40;;;;;;;4.27;87.54;100907.03;3599146;32;20137;-83
2020/12/01 03:42:25;;;;;;;46.75;34.88;;;;;;;4.25;87.81;100914.22;3576485;33;20183;-85
2020/12/01 03:45:31;;;;;;;49.85;35.85;;;;;;;4.25;87.87;100908.06;3602739;32;20195;-83
2020/12/01 03:48:35;;;;;;;53.72;37.63;;;;;;;4.18;88.19;100902.22;3536900;40;20136;-83
2020/12/01 03:51:39;;;;;;;46.85;35.40;;;;;;;4.13;88.33;100893.63;3531205;40;20128;-83
2020/12/01 03:54:42;;;;;;;46.50;35.15;;;;;;;4.11;88.49;100897.31;3596177;32;20144;-82
2020/12/01 03:57:48;;;;;;;44.03;35.60;;;;;;;4.01;88.45;100888.09;3618931;32;20133;-81
2020/12/01 04:00:52;;;;;;;53.03;37.45;;;;;;;3.95;88.48;100889.28;3598388;32;20152;-82
2020/12/01 04:03:56;;;;;;;47.45;36.92;;;;;;;3.92;88.61;100895.63;3578581;32;20128;-84
2020/12/01 04:07:01;;;;;;;50.63;38.63;;;;;;;3.97;88.76;100893.56;3597436;32;20157;-84
2020/12/01 04:10:05;;;;;;;47.38;36.83;;;;;;;4.02;88.84;100885.38;3579952;32;20128;-84
2020/12/01 04:13:11;;;;;;;48.63;36.40;;;;;;;4.03;88.52;100881.78;3589460;33;20145;-81
2020/12/01 04:16:15;;;;;;;45.67;35.22;;;;;;;4.07;88.59;100888.66;3578474;32;20140;-81
2020/12/01 04:19:20;;;;;;;44.97;33.58;;;;;;;4.07;88.46;100893.09;3542019;40;20168;-83
2020/12/01 04:22:24;;;;;;;44.55;34.03;;;;;;;4.06;88.54;100889.59;3534147;40;20140;-81
2020/12/01 04:25:28;;;;;;;45.45;34.00;;;;;;;4.13;88.36;100888.31;3536557;40;20145;-83
2020/12/01 04:28:33;;;;;;;46.45;34.45;;;;;;;4.15;88.18;100898.88;3526640;40;20129;-78
2020/12/01 04:31:37;;;;;;;48.08;34.33;;;;;;;4.17;87.77;100889.91;3532235;40;20132;-83
2020/12/01 04:34:41;;;;;;;47.78;37.13;;;;;;;4.10;87.78;100888.47;3540899;40;20176;-84
2020/12/01 04:37:45;;;;;;;50.03;34.28;;;;;;;4.11;87.57;100887.53;3576665;32;20638;-84
2020/12/01 04:40:49;;;;;;;49.47;38.08;;;;;;;4.00;87.73;100892.53;3584697;32;20523;-83
2020/12/01 04:43:57;;;;;;;48.80;35.78;;;;;;;4.03;87.83;100884.41;3534593;40;20637;-84
2020/12/01 04:47:12;;;;;;;49.13;35.35;;;;;;;3.98;87.82;100878.50;3536398;40;20144;-84
2020/12/01 04:50:25;;;;;;;51.30;35.90;;;;;;;3.94;87.72;100880.47;3567885;33;20518;-81
2020/12/01 04:53:58;;;;;;;50.42;35.95;;;;;;;3.88;87.59;100877.25;3568665;32;20140;-83
2020/12/01 04:57:32;;;;;;;53.28;37.95;;;;;;;3.93;87.88;100872.56;3522780;40;20149;-83
2020/12/01 05:00:48;;;;;;;49.95;36.53;;;;;;;3.90;87.54;100881.53;3568235;33;20124;-80
2020/12/01 05:04:15;;;;;;;50.08;37.20;;;;;;;3.96;87.55;100880.38;3585190;33;20136;-83
2020/12/01 05:07:42;;;;;;;46.00;34.53;;;;;;;3.96;87.48;100888.34;3526657;40;20125;-84
2020/12/01 05:10:49;;;;;;;48.20;35.10;;;;;;;4.02;87.49;100884.50;3558362;33;20188;-83
2020/12/01 05:14:02;;;;;;;49.88;36.40;;;;;;;4.02;87.44;100872.09;3531194;40;20649;-78
2020/12/01 05:17:15;;;;;;;49.13;37.00;;;;;;;4.03;87.41;100871.13;3567458;33;20157;-82
2020/12/01 05:20:19;;;;;;;50.13;35.77;;;;;;;4.05;87.55;100865.78;3532981;40;20148;-85
2020/12/01 05:23:29;;;;;;;45.00;34.88;;;;;;;4.11;87.14;100865.44;3531779;40;20184;-83
2020/12/01 05:26:38;;;;;;;48.50;34.90;;;;;;;4.01;87.04;100854.44;3532147;40;20129;-84
2020/12/01 05:29:42;;;;;;;56.08;37.10;;;;;;;3.99;86.78;100847.50;3526446;40;20156;-79
2020/12/01 05:33:07;;;;;;;49.60;36.75;;;;;;;4.02;86.67;100856.16;3531765;40;20133;-79
2020/12/01 05:36:20;;;;;;;45.42;35.33;;;;;;;4.03;86.98;100849.91;3587557;33;20416;-83
2020/12/01 05:39:24;;;;;;;49.65;37.40;;;;;;;4.01;87.11;100843.81;3578671;33;20140;-78
2020/12/01 05:42:29;;;;;;;47.47;36.35;;;;;;;3.98;87.13;100830.69;3598484;33;20152;-84
2020/12/01 05:45:36;;;;;;;59.00;36.65;;;;;;;3.96;87.09;100835.22;3527714;40;20150;-81
2020/12/01 05:48:57;;;;;;;52.80;37.45;;;;;;;3.92;87.08;100831.03;3587970;33;20156;-77
2020/12/01 05:52:29;;;;;;;56.13;38.83;;;;;;;3.81;87.24;100828.94;3565605;33;20658;-83
2020/12/01 05:55:33;;;;;;;53.75;38.10;;;;;;;3.89;87.28;100833.84;3584424;33;20133;-82
2020/12/01 05:58:42;;;;;;;49.47;37.50;;;;;;;3.86;87.47;100832.22;3577202;32;20540;-84
2020/12/01 06:01:49;;;;;;;58.97;38.83;;;;;;;3.87;87.75;100827.75;3590454;32;20187;-83
2020/12/01 06:04:55;;;;;;;54.15;40.17;;;;;;;3.77;87.91;100818.56;3594075;32;20148;-79
2020/12/01 06:08:10;;;;;;;73.82;48.35;;;;;;;3.71;88.37;100821.53;3598826;33;20517;-84
2020/12/01 06:11:26;;;;;;;60.70;41.38;;;;;;;3.69;88.68;100816.31;3599969;32;20140;-84
2020/12/01 06:14:42;;;;;;;54.15;40.90;;;;;;;3.63;89.19;100813.13;3532101;40;20160;-82
2020/12/01 06:17:50;;;;;;;56.45;41.75;;;;;;;3.63;89.29;100813.97;3574506;33;20148;-83
2020/12/01 06:21:08;;;;;;;49.53;36.83;;;;;;;3.70;89.28;100809.22;3538263;33;20129;-83
2020/12/01 06:24:21;;;;;;;53.45;38.25;;;;;;;3.77;89.39;100806.16;3599958;32;20140;-81
2020/12/01 06:28:09;;;;;;;55.80;37.50;;;;;;;3.88;88.99;100801.13;3532122;40;20230;-78
2020/12/01 06:31:33;;;;;;;52.45;38.72;;;;;;;3.88;88.95;100802.91;3584931;33;20136;-85
2020/12/01 06:35:22;;;;;;;54.28;38.45;;;;;;;3.93;88.92;100803.53;3531948;40;20187;-85
2020/12/01 06:38:41;;;;;;;59.40;41.80;;;;;;;3.93;89.11;100816.78;3600367;33;20157;-85
2020/12/01 06:41:58;;;;;;;58.03;42.22;;;;;;;3.82;89.36;100809.44;3508368;40;20153;-84
2020/12/01 06:45:27;;;;;;;53.30;39.25;;;;;;;3.88;89.58;100813.53;3521843;40;20165;-82
2020/12/01 06:48:43;;;;;;;67.45;41.03;;;;;;;3.81;89.88;100810.34;3513886;40;20157;-78
2020/12/01 06:51:53;;;;;;;58.60;41.90;;;;;;;3.89;89.46;100810.81;3572212;33;20141;-76
2020/12/01 06:54:59;;;;;;;58.40;42.03;;;;;;;3.93;89.13;100795.56;3521315;40;20157;-79
2020/12/01 06:58:15;;;;;;;59.60;44.30;;;;;;;4.00;89.59;100788.13;3516152;40;20646;-81
2020/12/01 07:01:31;;;;;;;63.00;45.20;;;;;;;4.01;89.32;100781.88;3515587;40;20152;-81
2020/12/01 07:04:36;;;;;;;69.53;48.58;;;;;;;4.05;89.06;100783.44;3507477;40;20676;-78
2020/12/01 07:07:47;;;;;;;75.32;53.80;;;;;;;4.03;88.55;100759.59;3518365;40;20184;-81
2020/12/01 07:11:04;;;;;;;80.28;55.85;;;;;;;4.06;88.42;100763.88;3506306;40;20145;-86
2020/12/01 07:14:21;;;;;;;81.80;54.25;;;;;;;4.11;88.40;100768.00;3520909;40;20635;-83
2020/12/01 07:17:37;;;;;;;81.30;55.08;;;;;;;4.14;88.35;100778.47;3581698;32;20160;-83
2020/12/01 07:21:09;;;;;;;84.68;56.08;;;;;;;4.13;88.16;100776.75;3517405;40;20659;-80
2020/12/01 07:24:17;;;;;;;82.07;58.58;;;;;;;4.12;88.44;100774.19;3528128;40;20149;-83
2020/12/01 07:27:32;;;;;;;87.80;57.40;;;;;;;4.10;88.45;100773.41;3561642;33;20168;-80
2020/12/01 07:30:54;;;;;;;84.57;59.53;;;;;;;4.14;88.51;100767.00;3575092;32;20144;-79
2020/12/01 07:34:04;;;;;;;85.78;58.95;;;;;;;4.18;88.77;100757.91;3607363;32;20133;-83
2020/12/01 07:37:27;;;;;;;84.53;59.20;;;;;;;4.21;88.41;100758.59;3531217;33;20130;-81
2020/12/01 07:40:43;;;;;;;90.13;63.03;;;;;;;4.21;88.74;100763.03;3517575;40;20145;-84
2020/12/01 07:44:10;;;;;;;89.68;59.75;;;;;;;4.28;88.79;100772.38;3532016;40;20530;-81
2020/12/01 07:47:16;;;;;;;82.22;58.53;;;;;;;4.39;88.97;100775.31;3570617;33;20133;-83
2020/12/01 07:50:20;;;;;;;80.38;57.30;;;;;;;4.40;88.71;100769.91;3586783;33;20177;-80
2020/12/01 07:53:25;;;;;;;80.47;57.17;;;;;;;4.45;88.52;100759.88;3575778;33;20142;-82
2020/12/01 07:56:30;;;;;;;75.53;54.88;;;;;;;4.63;88.30;100759.78;3598219;33;20196;-83
2020/12/01 07:59:41;;;;;;;75.15;53.30;;;;;;;4.73;87.86;100759.19;3591016;32;20144;-81
2020/12/01 08:02:45;;;;;;;76.03;53.30;;;;;;;4.85;87.63;100757.59;3613126;32;20665;-81
2020/12/01 08:05:52;;;;;;;77.80;52.03;;;;;;;4.98;87.35;100761.28;3595384;33;20145;-84
2020/12/01 08:08:56;;;;;;;67.57;51.03;;;;;;;5.07;86.80;100756.28;3577704;32;20148;-81
2020/12/01 08:12:06;;;;;;;80.95;51.08;;;;;;;5.16;86.29;100753.06;3593848;33;20141;-80
2020/12/01 08:15:16;;;;;;;74.68;51.67;;;;;;;5.20;86.26;100745.75;3601790;32;20157;-79
2020/12/01 08:18:21;;;;;;;63.25;47.90;;;;;;;5.21;86.00;100735.03;3593732;33;20152;-80
2020/12/01 08:21:31;;;;;;;72.55;53.63;;;;;;;5.07;85.67;100724.34;3532347;40;20136;-80
2020/12/01 08:24:42;;;;;;;77.95;54.55;;;;;;;5.10;85.95;100718.00;3532328;40;20133;-81
2020/12/01 08:28:06;;;;;;;81.63;56.55;;;;;;;5.02;85.95;100718.44;3552331;33;20165;-79
2020/12/01 08:31:18;;;;;;;74.68;54.08;;;;;;;5.14;85.99;100711.53;3586083;33;20148;-80
2020/12/01 08:34:50;;;;;;;81.18;57.63;;;;;;;4.96;85.98;100710.81;3582891;33;20200;-80
2020/12/01 08:38:26;;;;;;;82.57;57.15;;;;;;;4.96;86.33;100704.66;3532059;33;20192;-82
2020/12/01 08:41:49;;;;;;;84.82;58.83;;;;;;;4.99;86.39;100694.69;3521601;40;20141;-84
2020/12/01 08:45:09;;;;;;;85.07;57.17;;;;;;;5.04;86.30;100681.97;3557948;33;20200;-79
2020/12/01 08:48:41;;;;;;;77.88;54.72;;;;;;;5.11;86.14;100687.78;3594243;32;20148;-82
2020/12/01 08:52:01;;;;;;;71.85;52.22;;;;;;;5.25;85.70;100686.00;3573404;33;20156;-81
2020/12/01 08:55:28;;;;;;;77.28;51.38;;;;;;;5.17;86.02;100682.94;3565553;32;20665;-80
2020/12/01 08:58:45;;;;;;;75.40;53.65;;;;;;;5.11;86.55;100679.81;3587462;33;20144;-80
2020/12/01 09:01:49;;;;;;;72.60;51.35;;;;;;;5.04;86.73;100678.44;3541711;40;20247;-81
2020/12/01 09:05:00;;;;;;;72.97;52.90;;;;;;;5.07;86.89;100670.28;3584258;33;20541;-81
2020/12/01 09:19:45;;;;;;;63.60;46.63;;;;;;;5.15;86.42;100657.38;3505003;40;20153;-82
2020/12/01 09:22:46;;;;;;;63.90;44.05;;;;;;;5.13;85.54;100667.25;3548021;33;20158;-83
2020/12/01 09:25:53;;;;;;;62.67;44.78;;;;;;;5.15;85.44;100662.69;3495501;41;20563;-83
2020/12/01 09:28:57;;;;;;;57.03;42.10;;;;;;;5.13;85.49;100659.28;3506545;40;20690;-82
2020/12/01 09:32:06;;;;;;;61.03;43.05;;;;;;;5.21;85.27;100657.84;3568585;33;20157;-82
2020/12/01 09:35:10;;;;;;;61.95;43.80;;;;;;;5.24;85.30;100654.16;3569742;33;20146;-82
2020/12/01 09:38:15;;;;;;;64.32;45.13;;;;;;;5.44;85.17;100655.59;3559678;33;20660;-81
2020/12/01 09:41:22;;;;;;;61.92;44.40;;;;;;;5.43;84.56;100643.25;3580008;33;20154;-79
2020/12/01 09:44:48;;;;;;;64.43;43.65;;;;;;;5.55;84.54;100639.81;3543902;33;20165;-83
2020/12/01 09:47:56;;;;;;;55.25;42.25;;;;;;;5.67;84.08;100629.25;3552872;33;20133;-83
2020/12/01 09:51:01;;;;;;;54.25;41.22;;;;;;;5.96;82.90;100630.06;3514279;40;20156;-83
2020/12/01 10:02:40;;;;;;;52.85;41.85;;;;;;;6.41;80.71;100616.41;3593620;33;20204;-82
2020/12/01 10:14:34;;;;;;;59.15;43.55;;;;;;;6.16;80.97;100602.13;3583418;33;20145;-81
2020/12/01 10:37:11;;;;;;;66.93;44.30;;;;;;;5.50;83.69;100562.03;3600047;32;20156;-81
2020/12/01 10:40:15;;;;;;;52.55;42.15;;;;;;;5.47;83.24;100552.44;3581736;32;20157;-80
2020/12/01 10:43:20;;;;;;;52.83;38.25;;;;;;;5.63;82.26;100547.81;3598991;33;20204;-81
2020/12/01 10:46:24;;;;;;;49.30;37.83;;;;;;;5.56;81.85;100546.53;3587522;32;20141;-81
2020/12/01 10:49:29;;;;;;;50.00;37.47;;;;;;;5.61;81.50;100538.22;3563738;33;20168;-83
2020/12/01 10:52:32;;;;;;;51.88;38.67;;;;;;;5.73;80.50;100534.78;3575280;33;20168;-82
2020/12/01 10:55:37;;;;;;;46.17;34.40;;;;;;;5.79;79.35;100535.25;3572933;33;20137;-83
2020/12/01 10:58:41;;;;;;;42.75;33.10;;;;;;;5.79;78.19;100535.25;3604878;32;20148;-82
2020/12/01 11:01:46;;;;;;;45.30;31.85;;;;;;;5.79;77.54;100521.94;3586643;32;20148;-81
2020/12/01 11:04:50;;;;;;;40.17;31.17;;;;;;;5.74;77.24;100526.69;3608547;32;20152;-79
2020/12/01 11:07:55;;;;;;;41.28;31.85;;;;;;;5.81;76.98;100522.69;3590657;32;20148;-82
2020/12/01 11:10:59;;;;;;;40.33;30.02;;;;;;;5.96;75.69;100522.66;3613704;32;20164;-82
2020/12/01 11:14:04;;;;;;;38.35;28.95;;;;;;;6.11;74.55;100526.97;3601873;32;20712;-80
2020/12/01 11:17:08;;;;;;;41.47;30.17;;;;;;;6.17;74.59;100507.91;3583848;32;20144;-82
2020/12/01 11:20:15;;;;;;;41.60;30.58;;;;;;;6.40;73.84;100504.53;3601006;32;20152;-82
2020/12/01 11:23:21;;;;;;;41.00;29.48;;;;;;;6.52;73.31;100493.00;3599068;33;20149;-81
2020/12/01 11:26:26;;;;;;;41.17;29.08;;;;;;;6.44;73.28;100482.06;3537036;40;20215;-82
2020/12/01 11:29:30;;;;;;;37.38;27.73;;;;;;;6.25;72.81;100470.91;3536927;40;20144;-82
2020/12/01 11:32:35;;;;;;;41.83;28.40;;;;;;;6.40;72.46;100468.06;3537041;40;20148;-82
2020/12/01 11:35:39;;;;;;;38.47;26.30;;;;;;;6.63;71.81;100466.47;3548377;40;20164;-83
2020/12/01 11:38:43;;;;;;;33.50;25.15;;;;;;;6.48;71.67;100470.19;3536687;40;20219;-83
2020/12/01 11:41:48;;;;;;;31.40;23.88;;;;;;;6.82;72.41;100468.69;3542642;40;20675;-78
2020/12/01 11:47:19;;;;;;;31.38;23.40;;;;;;;7.13;71.31;100453.06;3584208;32;20140;-78
2020/12/01 11:50:24;;;;;;;34.20;26.60;;;;;;;6.63;71.38;100453.13;3543060;40;20168;-78
2020/12/01 11:53:29;;;;;;;32.58;24.40;;;;;;;6.43;72.10;100456.34;3572002;33;20140;-80
2020/12/01 11:56:33;;;;;;;31.90;25.02;;;;;;;6.44;72.32;100447.38;3599335;32;20203;-80
2020/12/01 11:59:38;;;;;;;35.00;26.10;;;;;;;6.49;72.52;100447.94;3581516;32;20530;-83
2020/12/01 12:02:42;;;;;;;32.28;24.80;;;;;;;6.49;72.56;100443.41;3592432;33;20124;-81
2020/12/01 12:05:46;;;;;;;31.85;23.88;;;;;;;6.56;72.44;100427.88;3582744;32;20203;-76
2020/12/01 12:08:50;;;;;;;32.92;23.27;;;;;;;6.71;72.13;100437.47;3615911;32;20645;-78
2020/12/01 12:11:55;;;;;;;30.73;22.70;;;;;;;6.61;70.88;100436.41;3598009;32;20136;-80
2020/12/01 12:14:59;;;;;;;29.15;22.60;;;;;;;6.56;71.29;100422.53;3583092;32;20246;-77
2020/12/01 12:18:04;;;;;;;30.08;22.58;;;;;;;6.46;71.84;100421.47;3590395;33;20157;-82
2020/12/01 12:21:08;;;;;;;27.98;22.42;;;;;;;6.43;71.94;100419.88;3580215;32;20160;-79
2020/12/01 12:24:13;;;;;;;28.42;21.88;;;;;;;6.48;72.11;100416.88;3602169;32;20133;-78
2020/12/01 12:27:18;;;;;;;32.45;22.95;;;;;;;6.46;72.09;100421.47;3589076;32;20152;-80
2020/12/01 12:30:22;;;;;;;28.92;22.50;;;;;;;6.51;72.03;100416.66;3653599;32;20144;-80
2020/12/01 12:33:26;;;;;;;29.05;22.00;;;;;;;6.50;71.94;100412.28;3551692;32;20152;-81
2020/12/01 12:36:30;;;;;;;30.52;22.13;;;;;;;6.55;72.05;100415.47;3539495;40;20137;-80
2020/12/01 12:39:34;;;;;;;24.45;20.45;;;;;;;6.35;72.11;100414.22;3536373;40;20168;-78
2020/12/01 12:42:38;;;;;;;33.85;22.08;;;;;;;6.28;72.79;100412.94;3541812;40;20156;-80
2020/12/01 12:45:42;;;;;;;32.40;20.95;;;;;;;6.29;73.22;100403.13;3541979;40;20187;-80
2020/12/01 12:48:47;;;;;;;26.40;20.65;;;;;;;6.31;73.40;100406.53;3541977;40;20164;-79
2020/12/01 12:51:52;;;;;;;31.77;19.98;;;;;;;6.20;72.47;100403.75;3542649;40;20132;-77
2020/12/01 12:54:56;;;;;;;27.20;18.98;;;;;;;6.18;72.64;100389.69;3536135;40;20147;-78
2020/12/01 12:58:00;;;;;;;26.02;20.15;;;;;;;6.23;72.51;100403.53;3534529;40;20133;-79
2020/12/01 13:01:05;;;;;;;27.83;17.65;;;;;;;6.25;72.10;100396.28;3574255;33;20212;-80
2020/12/01 13:04:09;;;;;;;24.42;17.75;;;;;;;6.23;71.66;100398.22;3573297;33;20518;-80
2020/12/01 13:07:13;;;;;;;26.58;17.95;;;;;;;6.22;71.58;100401.84;3530087;40;20188;-80
2020/12/01 13:10:18;;;;;;;26.63;17.35;;;;;;;6.17;71.12;100388.81;3540959;40;20137;-80
2020/12/01 13:13:22;;;;;;;22.00;16.17;;;;;;;6.31;71.38;100393.22;3565731;32;20133;-80
2020/12/01 13:16:27;;;;;;;23.10;17.00;;;;;;;6.49;71.80;100386.59;3539082;33;20148;-80
2020/12/01 13:19:31;;;;;;;21.65;16.45;;;;;;;6.76;69.65;100375.78;3531773;40;20140;-81
2020/12/01 13:22:35;;;;;;;22.85;16.35;;;;;;;6.74;69.88;100378.53;3538555;40;20199;-81
2020/12/01 13:25:39;;;;;;;22.27;15.65;;;;;;;6.85;68.77;100367.97;3535625;40;20144;-78
2020/12/01 13:28:44;;;;;;;23.20;15.73;;;;;;;6.61;66.50;100367.06;3543854;32;20140;-82
2020/12/01 13:31:49;;;;;;;21.15;15.60;;;;;;;6.41;66.95;100362.28;3559011;32;20152;-81
2020/12/01 13:34:53;;;;;;;18.80;15.27;;;;;;;6.26;67.27;100368.69;3606144;32;20137;-82
2020/12/01 13:37:58;;;;;;;17.65;14.57;;;;;;;6.25;67.76;100358.97;3593455;32;20153;-82
2020/12/01 13:41:02;;;;;;;21.10;16.08;;;;;;;6.19;68.16;100370.06;3605974;32;20136;-81
2020/12/01 13:44:06;;;;;;;21.92;16.73;;;;;;;6.22;68.35;100364.53;3588049;32;20156;-81
2020/12/01 13:47:11;;;;;;;22.40;15.88;;;;;;;6.22;68.66;100364.53;3611682;32;20188;-82
2020/12/01 13:50:20;;;;;;;20.63;15.75;;;;;;;6.19;68.66;100368.28;3593550;32;20180;-81
2020/12/01 13:53:24;;;;;;;26.42;16.30;;;;;;;6.19;68.30;100360.28;3596590;32;20549;-82
2020/12/01 13:56:29;;;;;;;22.20;16.38;;;;;;;6.11;67.82;100367.09;3585041;32;20152;-81
2020/12/01 13:59:33;;;;;;;23.77;16.33;;;;;;;6.06;68.18;100358.56;3602513;32;20148;-81
2020/12/01 14:02:37;;;;;;;20.40;15.80;;;;;;;6.03;68.08;100362.28;3583887;32;20692;-80
2020/12/01 14:05:42;;;;;;;24.00;16.20;;;;;;;5.96;68.14;100368.13;3607208;32;20195;-81
2020/12/01 14:08:46;;;;;;;28.20;16.42;;;;;;;5.97;68.41;100361.88;3590003;32;20144;-79
2020/12/01 14:11:53;;;;;;;19.88;14.93;;;;;;;5.94;68.33;100359.41;3617100;32;20148;-82
2020/12/01 14:14:58;;;;;;;26.77;16.45;;;;;;;5.94;68.32;100359.41;3593944;32;20653;-81
2020/12/01 14:18:04;;;;;;;23.73;16.38;;;;;;;6.00;68.39;100361.66;3604567;32;20537;-82
2020/12/01 14:21:10;;;;;;;18.35;14.60;;;;;;;5.92;68.74;100361.31;3580307;32;20548;-79
2020/12/01 14:24:14;;;;;;;23.33;15.52;;;;;;;5.91;69.18;100360.47;3596958;32;20234;-82
2020/12/01 14:27:19;;;;;;;19.30;14.90;;;;;;;5.93;69.21;100355.88;3529833;40;20533;-85
2020/12/01 14:30:24;;;;;;;21.35;14.93;;;;;;;5.88;69.90;100355.34;3535694;40;20132;-79
2020/12/01 14:33:28;;;;;;;20.98;16.05;;;;;;;5.86;69.81;100354.59;3581413;32;20144;-79
2020/12/01 14:36:38;;;;;;;22.10;15.10;;;;;;;5.83;69.89;100360.94;3537067;40;20136;-80
2020/12/01 14:39:45;;;;;;;22.58;14.95;;;;;;;6.09;71.15;100353.88;3537330;40;20129;-77
2020/12/01 14:42:49;;;;;;;20.27;14.77;;;;;;;6.08;70.18;100357.50;3542873;40;20653;-77
2020/12/01 14:45:58;;;;;;;19.40;14.35;;;;;;;5.96;69.81;100360.16;3537328;40;20156;-80
2020/12/01 14:49:13;;;;;;;20.55;15.13;;;;;;;5.96;68.94;100354.81;3531617;40;20171;-80
2020/12/01 14:52:27;;;;;;;20.63;15.23;;;;;;;5.87;69.33;100358.97;3589176;32;20195;-81
2020/12/01 14:56:08;;;;;;;21.23;15.85;;;;;;;5.76;69.66;100357.00;3611850;32;20665;-81
2020/12/01 14:59:50;;;;;;;23.92;15.25;;;;;;;5.76;69.94;100361.47;3542760;32;20140;-78
2020/12/01 15:02:56;;;;;;;18.20;14.07;;;;;;;5.62;70.30;100367.75;3536003;40;20514;-80
2020/12/01 15:06:33;;;;;;;20.48;15.50;;;;;;;5.61;70.87;100362.50;3536972;40;20641;-81
2020/12/01 15:09:49;;;;;;;20.98;15.23;;;;;;;5.57;71.34;100353.03;3583552;32;20148;-82
2020/12/01 15:12:58;;;;;;;26.40;16.85;;;;;;;5.58;71.32;100355.56;3605878;32;20125;-82
2020/12/01 15:16:07;;;;;;;24.75;16.35;;;;;;;5.59;71.12;100351.09;3614839;32;20180;-82
2020/12/01 15:19:11;;;;;;;23.50;16.30;;;;;;;5.62;70.85;100354.44;3545625;40;20149;-80